sensor_id;sensor_type;location;lat;lon;timestamp;pressure;altitude;pressure_sealevel;temperature;humidity
3142;BME280;1581;51.568;6.998;2024-02-26T00:00:45;99202.19;;;8.75;100.00
3142;BME280;1581;51.568;6.998;2024-02-26T00:03:13;99210.34;;;8.80;100.00
3142;BME280;1581;51.568;6.998;2024-02-26T00:05:40;99208.94;;;8.78;100.00
3142;BME280;1581;51.568;6.998;2024-02-26T00:08:07;99213.84;;;8.74;100.00
3142;BME280;1581;51.568;6.998;2024-02-26T00:10:34;99213.00;;;8.80;100.00
3142;BME280;1581;51.568;6.998;2024-02-26T00:13:01;99204.94;;;8.62;100.00
3142;BME280;1581;51.568;6.998;2024-02-26T00:15:30;99209.00;;;8.65;100.00
3142;BME280;1581;51.568;6.998;2024-02-26T00:17:57;99196.72;;;8.70;100.00
3142;BME280;1581;51.568;6.998;2024-02-26T00:20:24;99190.41;;;8.71;100.00
3142;BME280;1581;51.568;6.998;2024-02-26T00:22:51;99194.06;;;8.70;100.00
3142;BME280;1581;51.568;6.998;2024-02-26T00:25:18;99200.00;;;8.72;100.00
3142;BME280;1581;51.568;6.998;2024-02-26T00:27:45;99200.78;;;8.73;100.00
3142;BME280;1581;51.568;6.998;2024-02-26T00:30:13;99207.75;;;8.67;100.00
3142;BME280;1581;51.568;6.998;2024-02-26T00:32:41;99207.97;;;8.72;100.00
3142;BME280;1581;51.568;6.998;2024-02-26T00:35:09;99219.59;;;8.71;100.00
3142;BME280;1581;51.568;6.998;2024-02-26T00:37:36;99224.69;;;8.73;100.00
3142;BME280;1581;51.568;6.998;2024-02-26T00:40:04;99224.72;;;8.66;100.00
3142;BME280;1581;51.568;6.998;2024-02-26T00:42:32;99213.91;;;8.68;100.00
3142;BME280;1581;51.568;6.998;2024-02-26T00:44:59;99219.81;;;8.63;100.00
3142;BME280;1581;51.568;6.998;2024-02-26T00:47:26;99209.84;;;8.59;100.00
3142;BME280;1581;51.568;6.998;2024-02-26T00:49:54;99205.13;;;8.67;100.00
3142;BME280;1581;51.568;6.998;2024-02-26T00:52:21;99211.28;;;8.61;100.00
3142;BME280;1581;51.568;6.998;2024-02-26T00:54:48;99198.81;;;8.62;100.00
3142;BME280;1581;51.568;6.998;2024-02-26T00:57:17;99194.72;;;8.66;100.00
3142;BME280;1581;51.568;6.998;2024-02-26T00:59:44;99206.13;;;8.66;100.00
3142;BME280;1581;51.568;6.998;2024-02-26T01:02:11;99210.63;;;8.72;100.00
3142;BME280;1581;51.568;6.998;2024-02-26T01:04:38;99208.19;;;8.64;100.00
3142;BME280;1581;51.568;6.998;2024-02-26T01:07:07;99209.03;;;8.58;100.00
3142;BME280;1581;51.568;6.998;2024-02-26T01:09:34;99209.84;;;8.59;100.00
3142;BME280;1581;51.568;6.998;2024-02-26T01:12:01;99204.88;;;8.69;100.00
3142;BME280;1581;51.568;6.998;2024-02-26T01:14:28;99202.22;;;8.69;100.00
3142;BME280;1581;51.568;6.998;2024-02-26T01:16:55;99200.41;;;8.69;100.00
3142;BME280;1581;51.568;6.998;2024-02-26T01:19:22;99200.19;;;8.71;100.00
3142;BME280;1581;51.568;6.998;2024-02-26T01:21:49;99198.34;;;8.71;100.00
3142;BME280;1581;51.568;6.998;2024-02-26T01:24:18;99191.69;;;8.62;100.00
3142;BME280;1581;51.568;6.998;2024-02-26T01:26:44;99195.75;;;8.65;100.00
3142;BME280;1581;51.568;6.998;2024-02-26T01:29:12;99194.78;;;8.53;100.00
3142;BME280;1581;51.568;6.998;2024-02-26T01:31:39;99198.66;;;8.57;100.00
3142;BME280;1581;51.568;6.998;2024-02-26T01:34:06;99201.50;;;8.55;100.00
3142;BME280;1581;51.568;6.998;2024-02-26T01:36:33;99201.31;;;8.57;100.00
3142;BME280;1581;51.568;6.998;2024-02-26T01:39:00;99202.09;;;8.57;100.00
3142;BME280;1581;51.568;6.998;2024-02-26T01:41:30;99207.16;;;8.65;100.00
3142;BME280;1581;51.568;6.998;2024-02-26T01:43:57;99204.53;;;8.59;100.00
3142;BME280;1581;51.568;6.998;2024-02-26T01:46:24;99206.19;;;8.53;100.00
3142;BME280;1581;51.568;6.998;2024-02-26T01:48:52;99203.97;;;8.57;100.00
3142;BME280;1581;51.568;6.998;2024-02-26T01:51:19;99202.72;;;8.59;100.00
3142;BME280;1581;51.568;6.998;2024-02-26T01:53:46;99203.31;;;8.61;100.00
3142;BME280;1581;51.568;6.998;2024-02-26T01:56:14;99204.34;;;8.60;100.00
3142;BME280;1581;51.568;6.998;2024-02-26T01:58:45;99209.09;;;8.52;100.00
3142;BME280;1581;51.568;6.998;2024-02-26T02:01:13;99210.72;;;8.53;100.00
3142;BME280;1581;51.568;6.998;2024-02-26T02:03:42;99200.66;;;8.61;100.00
3142;BME280;1581;51.568;6.998;2024-02-26T02:06:11;99204.78;;;8.51;100.00
3142;BME280;1581;51.568;6.998;2024-02-26T02:08:39;99207.03;;;8.54;100.00
3142;BME280;1581;51.568;6.998;2024-02-26T02:11:06;99211.50;;;8.53;100.00
3142;BME280;1581;51.568;6.998;2024-02-26T02:13:37;99208.25;;;8.58;100.00
3142;BME280;1581;51.568;6.998;2024-02-26T02:16:06;99207.41;;;8.57;100.00
3142;BME280;1581;51.568;6.998;2024-02-26T02:18:33;99207.63;;;8.56;100.00
3142;BME280;1581;51.568;6.998;2024-02-26T02:21:01;99202.09;;;8.57;100.00
3142;BME280;1581;51.568;6.998;2024-02-26T02:23:29;99196.78;;;8.57;100.00
3142;BME280;1581;51.568;6.998;2024-02-26T02:25:57;99200.84;;;8.60;100.00
3142;BME280;1581;51.568;6.998;2024-02-26T02:28:26;99208.06;;;8.53;100.00
3142;BME280;1581;51.568;6.998;2024-02-26T02:30:54;99207.63;;;8.56;100.00
3142;BME280;1581;51.568;6.998;2024-02-26T02:33:22;99207.59;;;8.62;100.00
3142;BME280;1581;51.568;6.998;2024-02-26T02:35:50;99212.50;;;8.59;100.00
3142;BME280;1581;51.568;6.998;2024-02-26T02:38:21;99215.56;;;8.62;100.00
3142;BME280;1581;51.568;6.998;2024-02-26T02:40:49;99224.13;;;8.64;100.00
3142;BME280;1581;51.568;6.998;2024-02-26T02:43:16;99222.69;;;8.68;100.00
3142;BME280;1581;51.568;6.998;2024-02-26T02:45:43;99224.19;;;8.58;100.00
3142;BME280;1581;51.568;6.998;2024-02-26T02:48:11;99224.19;;;8.58;100.00
3142;BME280;1581;51.568;6.998;2024-02-26T02:50:39;99222.94;;;8.60;100.00
3142;BME280;1581;51.568;6.998;2024-02-26T02:53:06;99228.00;;;8.62;100.00
3142;BME280;1581;51.568;6.998;2024-02-26T02:55:35;99235.59;;;8.58;100.00
3142;BME280;1581;51.568;6.998;2024-02-26T02:58:02;99226.56;;;8.66;100.00
3142;BME280;1581;51.568;6.998;2024-02-26T03:00:29;99232.06;;;8.64;100.00
3142;BME280;1581;51.568;6.998;2024-02-26T03:02:56;99232.91;;;8.65;100.00
3142;BME280;1581;51.568;6.998;2024-02-26T03:05:23;99233.91;;;8.70;100.00
3142;BME280;1581;51.568;6.998;2024-02-26T03:07:50;99231.91;;;8.59;100.00
3142;BME280;1581;51.568;6.998;2024-02-26T03:10:18;99232.06;;;8.64;100.00
3142;BME280;1581;51.568;6.998;2024-02-26T03:12:47;99240.47;;;8.68;100.00
3142;BME280;1581;51.568;6.998;2024-02-26T03:15:14;99233.56;;;8.60;100.00
3142;BME280;1581;51.568;6.998;2024-02-26T03:17:41;99223.31;;;8.64;100.00
3142;BME280;1581;51.568;6.998;2024-02-26T03:20:09;99233.94;;;8.64;100.00
3142;BME280;1581;51.568;6.998;2024-02-26T03:22:38;99221.66;;;8.69;100.00
3142;BME280;1581;51.568;6.998;2024-02-26T03:25:07;99236.56;;;8.70;100.00
3142;BME280;1581;51.568;6.998;2024-02-26T03:27:34;99237.00;;;8.61;100.00
3142;BME280;1581;51.568;6.998;2024-02-26T03:30:03;99239.63;;;8.67;100.00
3142;BME280;1581;51.568;6.998;2024-02-26T03:32:30;99241.88;;;8.70;100.00
3142;BME280;1581;51.568;6.998;2024-02-26T03:34:57;99237.47;;;8.52;100.00
3142;BME280;1581;51.568;6.998;2024-02-26T03:37:25;99251.56;;;8.52;100.00
3142;BME280;1581;51.568;6.998;2024-02-26T03:39:52;99242.34;;;8.54;100.00
3142;BME280;1581;51.568;6.998;2024-02-26T03:42:19;99238.88;;;8.54;100.00
3142;BME280;1581;51.568;6.998;2024-02-26T03:44:47;99239.69;;;8.54;100.00
3142;BME280;1581;51.568;6.998;2024-02-26T03:47:16;99236.03;;;8.49;100.00
3142;BME280;1581;51.568;6.998;2024-02-26T03:49:43;99237.50;;;8.45;100.00
3142;BME280;1581;51.568;6.998;2024-02-26T03:52:10;99243.19;;;8.49;100.00
3142;BME280;1581;51.568;6.998;2024-02-26T03:54:37;99234.22;;;8.50;100.00
3142;BME280;1581;51.568;6.998;2024-02-26T03:57:04;99226.84;;;8.52;100.00
3142;BME280;1581;51.568;6.998;2024-02-26T03:59:31;99240.97;;;8.46;100.00
3142;BME280;1581;51.568;6.998;2024-02-26T04:01:58;99244.84;;;8.50;100.00
3142;BME280;1581;51.568;6.998;2024-02-26T04:04:29;99249.16;;;8.44;100.00
3142;BME280;1581;51.568;6.998;2024-02-26T04:06:56;99254.22;;;8.46;100.00
3142;BME280;1581;51.568;6.998;2024-02-26T04:09:23;99259.38;;;8.41;100.00
3142;BME280;1581;51.568;6.998;2024-02-26T04:11:50;99239.44;;;8.25;100.00
3142;BME280;1581;51.568;6.998;2024-02-26T04:14:19;99233.53;;;8.17;100.00
3142;BME280;1581;51.568;6.998;2024-02-26T04:16:46;99232.50;;;8.18;100.00
3142;BME280;1581;51.568;6.998;2024-02-26T04:19:17;99236.19;;;8.04;100.00
3142;BME280;1581;51.568;6.998;2024-02-26T04:21:46;99234.38;;;8.04;100.00
3142;BME280;1581;51.568;6.998;2024-02-26T04:24:13;99242.94;;;8.06;100.00
3142;BME280;1581;51.568;6.998;2024-02-26T04:26:40;99238.66;;;8.05;100.00
3142;BME280;1581;51.568;6.998;2024-02-26T04:29:06;99236.19;;;8.04;100.00
3142;BME280;1581;51.568;6.998;2024-02-26T04:31:34;99237.66;;;7.87;100.00
3142;BME280;1581;51.568;6.998;2024-02-26T04:34:01;99237.66;;;7.80;100.00
3142;BME280;1581;51.568;6.998;2024-02-26T04:36:28;99223.78;;;7.85;100.00
3142;BME280;1581;51.568;6.998;2024-02-26T04:38:56;99221.59;;;7.75;100.00
3142;BME280;1581;51.568;6.998;2024-02-26T04:41:24;99221.81;;;7.61;100.00
3142;BME280;1581;51.568;6.998;2024-02-26T04:43:51;99214.66;;;7.62;100.00
3142;BME280;1581;51.568;6.998;2024-02-26T04:46:18;99213.88;;;7.68;100.00
3142;BME280;1581;51.568;6.998;2024-02-26T04:48:47;99220.19;;;7.73;100.00
3142;BME280;1581;51.568;6.998;2024-02-26T04:51:14;99233.44;;;7.73;100.00
3142;BME280;1581;51.568;6.998;2024-02-26T04:53:41;99226.28;;;7.67;100.00
3142;BME280;1581;51.568;6.998;2024-02-26T04:56:10;99236.72;;;7.49;100.00
3142;BME280;1581;51.568;6.998;2024-02-26T04:58:37;99241.22;;;7.42;100.00
3142;BME280;1581;51.568;6.998;2024-02-26T05:01:04;99245.88;;;7.53;100.00
3142;BME280;1581;51.568;6.998;2024-02-26T05:03:31;99242.63;;;7.58;100.00
3142;BME280;1581;51.568;6.998;2024-02-26T05:05:58;99247.69;;;7.72;100.00
3142;BME280;1581;51.568;6.998;2024-02-26T05:08:26;99250.75;;;7.56;100.00
3142;BME280;1581;51.568;6.998;2024-02-26T05:10:56;99254.25;;;7.63;100.00
3142;BME280;1581;51.568;6.998;2024-02-26T05:13:24;99252.63;;;7.56;100.00
3142;BME280;1581;51.568;6.998;2024-02-26T05:15:51;99252.00;;;7.60;100.00
3142;BME280;1581;51.568;6.998;2024-02-26T05:18:19;99264.22;;;7.61;100.00
3142;BME280;1581;51.568;6.998;2024-02-26T05:20:46;99250.34;;;7.59;100.00
3142;BME280;1581;51.568;6.998;2024-02-26T05:23:13;99260.56;;;7.68;100.00
3142;BME280;1581;51.568;6.998;2024-02-26T05:25:40;99265.25;;;7.73;100.00
3142;BME280;1581;51.568;6.998;2024-02-26T05:28:08;99269.94;;;7.77;100.00
3142;BME280;1581;51.568;6.998;2024-02-26T05:30:36;99264.41;;;7.85;100.00
3142;BME280;1581;51.568;6.998;2024-02-26T05:33:05;99271.75;;;7.83;100.00
3142;BME280;1581;51.568;6.998;2024-02-26T05:35:32;99272.53;;;7.84;100.00
3142;BME280;1581;51.568;6.998;2024-02-26T05:37:59;99266.66;;;7.82;100.00
3142;BME280;1581;51.568;6.998;2024-02-26T05:40:28;99277.25;;;7.82;100.00
3142;BME280;1581;51.568;6.998;2024-02-26T05:42:55;99278.47;;;7.79;100.00
3142;BME280;1581;51.568;6.998;2024-02-26T05:45:22;99277.44;;;7.74;100.00
3142;BME280;1581;51.568;6.998;2024-02-26T05:47:51;99279.13;;;7.68;100.00
3142;BME280;1581;51.568;6.998;2024-02-26T05:50:18;99283.97;;;7.78;100.00
3142;BME280;1581;51.568;6.998;2024-02-26T05:52:45;99286.84;;;7.83;100.00
3142;BME280;1581;51.568;6.998;2024-02-26T05:55:12;99291.31;;;7.76;100.00
3142;BME280;1581;51.568;6.998;2024-02-26T05:57:39;99310.50;;;7.78;100.00
3142;BME280;1581;51.568;6.998;2024-02-26T06:00:08;99295.81;;;7.63;100.00
3142;BME280;1581;51.568;6.998;2024-02-26T06:02:35;99306.44;;;7.75;100.00
3142;BME280;1581;51.568;6.998;2024-02-26T06:05:05;99309.25;;;7.74;100.00
3142;BME280;1581;51.568;6.998;2024-02-26T06:07:34;99319.69;;;7.69;100.00
3142;BME280;1581;51.568;6.998;2024-02-26T06:10:01;99315.19;;;7.69;100.00
3142;BME280;1581;51.568;6.998;2024-02-26T06:12:30;99308.84;;;7.64;100.00
3142;BME280;1581;51.568;6.998;2024-02-26T06:14:58;99318.25;;;7.67;100.00
3142;BME280;1581;51.568;6.998;2024-02-26T06:17:26;99320.06;;;7.66;100.00
3142;BME280;1581;51.568;6.998;2024-02-26T06:19:54;99323.56;;;7.60;100.00
3142;BME280;1581;51.568;6.998;2024-02-26T06:22:22;99324.34;;;7.54;100.00
3142;BME280;1581;51.568;6.998;2024-02-26T06:24:49;99326.38;;;7.33;100.00
3142;BME280;1581;51.568;6.998;2024-02-26T06:27:17;99337.03;;;7.52;100.00
3142;BME280;1581;51.568;6.998;2024-02-26T06:29:44;99324.59;;;7.66;100.00
3142;BME280;1581;51.568;6.998;2024-02-26T06:32:11;99326.00;;;7.62;100.00
3142;BME280;1581;51.568;6.998;2024-02-26T06:34:38;99330.88;;;7.58;100.00
3142;BME280;1581;51.568;6.998;2024-02-26T06:37:07;99336.00;;;7.53;100.00
3142;BME280;1581;51.568;6.998;2024-02-26T06:39:36;99334.97;;;7.54;100.00
3142;BME280;1581;51.568;6.998;2024-02-26T06:42:04;99332.72;;;7.45;100.00
3142;BME280;1581;51.568;6.998;2024-02-26T06:44:31;99339.44;;;7.54;100.00
3142;BME280;1581;51.568;6.998;2024-02-26T06:46:58;99336.41;;;7.57;100.00
3142;BME280;1581;51.568;6.998;2024-02-26T06:49:26;99339.88;;;7.64;100.00
3142;BME280;1581;51.568;6.998;2024-02-26T06:51:53;99327.84;;;7.68;100.00
3142;BME280;1581;51.568;6.998;2024-02-26T06:54:20;99331.31;;;7.68;100.00
3142;BME280;1581;51.568;6.998;2024-02-26T06:56:48;99334.16;;;7.73;100.00
3142;BME280;1581;51.568;6.998;2024-02-26T06:59:15;99339.25;;;7.81;100.00
3142;BME280;1581;51.568;6.998;2024-02-26T07:01:43;99343.53;;;7.69;100.00
3142;BME280;1581;51.568;6.998;2024-02-26T07:04:10;99342.72;;;7.75;100.00
3142;BME280;1581;51.568;6.998;2024-02-26T07:06:37;99337.41;;;7.75;100.00
3142;BME280;1581;51.568;6.998;2024-02-26T07:09:04;99339.47;;;7.73;100.00
3142;BME280;1581;51.568;6.998;2024-02-26T07:11:31;99343.31;;;7.70;100.00
3142;BME280;1581;51.568;6.998;2024-02-26T07:13:59;99349.66;;;7.76;100.00
3142;BME280;1581;51.568;6.998;2024-02-26T07:16:27;99346.78;;;7.84;100.00
3142;BME280;1581;51.568;6.998;2024-02-26T07:18:54;99356.81;;;7.75;100.00
3142;BME280;1581;51.568;6.998;2024-02-26T07:21:21;99357.59;;;7.82;100.00
3142;BME280;1581;51.568;6.998;2024-02-26T07:23:49;99364.34;;;7.72;100.00
3142;BME280;1581;51.568;6.998;2024-02-26T07:26:15;99363.72;;;7.70;100.00
3142;BME280;1581;51.568;6.998;2024-02-26T07:28:44;99368.44;;;7.74;100.00
3142;BME280;1581;51.568;6.998;2024-02-26T07:31:12;99370.25;;;7.68;100.00
3142;BME280;1581;51.568;6.998;2024-02-26T07:33:39;99372.72;;;7.82;100.00
3142;BME280;1581;51.568;6.998;2024-02-26T07:36:09;99379.84;;;7.88;100.00
3142;BME280;1581;51.568;6.998;2024-02-26T07:38:36;99377.19;;;7.88;100.00
3142;BME280;1581;51.568;6.998;2024-02-26T07:41:04;99383.50;;;7.93;100.00
3142;BME280;1581;51.568;6.998;2024-02-26T07:43:31;99372.50;;;7.77;100.00
3142;BME280;1581;51.568;6.998;2024-02-26T07:45:59;99381.25;;;7.84;100.00
3142;BME280;1581;51.568;6.998;2024-02-26T07:48:27;99382.69;;;7.80;100.00
3142;BME280;1581;51.568;6.998;2024-02-26T07:50:55;99393.72;;;7.83;100.00
3142;BME280;1581;51.568;6.998;2024-02-26T07:53:24;99398.19;;;7.89;100.00
3142;BME280;1581;51.568;6.998;2024-02-26T07:55:51;99394.13;;;7.93;100.00
3142;BME280;1581;51.568;6.998;2024-02-26T07:58:18;99394.34;;;7.92;100.00
3142;BME280;1581;51.568;6.998;2024-02-26T08:00:45;99400.44;;;7.99;100.00
3142;BME280;1581;51.568;6.998;2024-02-26T08:03:12;99386.78;;;8.08;100.00
3142;BME280;1581;51.568;6.998;2024-02-26T08:05:43;99396.97;;;8.11;100.00
3142;BME280;1581;51.568;6.998;2024-02-26T08:08:12;99409.22;;;8.06;100.00
3142;BME280;1581;51.568;6.998;2024-02-26T08:10:39;99407.56;;;8.05;100.00
3142;BME280;1581;51.568;6.998;2024-02-26T08:13:06;99406.38;;;8.01;100.00
3142;BME280;1581;51.568;6.998;2024-02-26T08:15:35;99414.34;;;8.07;100.00
3142;BME280;1581;51.568;6.998;2024-02-26T08:18:03;99420.84;;;8.11;100.00
3142;BME280;1581;51.568;6.998;2024-02-26T08:20:31;99422.28;;;8.07;100.00
3142;BME280;1581;51.568;6.998;2024-02-26T08:22:59;99425.56;;;8.16;100.00
3142;BME280;1581;51.568;6.998;2024-02-26T08:25:26;99427.59;;;8.01;100.00
3142;BME280;1581;51.568;6.998;2024-02-26T08:27:53;99424.31;;;8.12;100.00
3142;BME280;1581;51.568;6.998;2024-02-26T08:30:20;99427.19;;;8.17;100.00
3142;BME280;1581;51.568;6.998;2024-02-26T08:32:48;99420.84;;;8.11;100.00
3142;BME280;1581;51.568;6.998;2024-02-26T08:35:15;99426.97;;;7.99;100.00
3142;BME280;1581;51.568;6.998;2024-02-26T08:37:44;99426.16;;;8.05;100.00
3142;BME280;1581;51.568;6.998;2024-02-26T08:40:13;99429.81;;;8.04;100.00
3142;BME280;1581;51.568;6.998;2024-02-26T08:42:41;99431.06;;;8.14;100.00
3142;BME280;1581;51.568;6.998;2024-02-26T08:45:08;99436.13;;;8.09;100.00
3142;BME280;1581;51.568;6.998;2024-02-26T08:47:36;99434.97;;;8.18;100.00
3142;BME280;1581;51.568;6.998;2024-02-26T08:50:04;99430.47;;;8.25;100.00
3142;BME280;1581;51.568;6.998;2024-02-26T08:52:32;99431.28;;;8.26;100.00
3142;BME280;1581;51.568;6.998;2024-02-26T08:54:59;99433.13;;;8.32;100.00
3142;BME280;1581;51.568;6.998;2024-02-26T08:57:27;99439.63;;;8.36;100.00
3142;BME280;1581;51.568;6.998;2024-02-26T08:59:54;99440.25;;;8.31;100.00
3142;BME280;1581;51.568;6.998;2024-02-26T09:02:21;99440.25;;;8.12;100.00
3142;BME280;1581;51.568;6.998;2024-02-26T09:04:48;99440.88;;;8.27;100.00
3142;BME280;1581;51.568;6.998;2024-02-26T09:07:16;99439.06;;;8.21;100.00
3142;BME280;1581;51.568;6.998;2024-02-26T09:09:43;99437.19;;;8.34;100.00
3142;BME280;1581;51.568;6.998;2024-02-26T09:12:11;99444.53;;;8.26;100.00
3142;BME280;1581;51.568;6.998;2024-02-26T09:14:39;99448.00;;;8.46;100.00
3142;BME280;1581;51.568;6.998;2024-02-26T09:17:06;99452.69;;;8.44;100.00
3142;BME280;1581;51.568;6.998;2024-02-26T09:19:33;99463.91;;;8.52;100.00
3142;BME280;1581;51.568;6.998;2024-02-26T09:22:00;99466.19;;;8.36;100.00
3142;BME280;1581;51.568;6.998;2024-02-26T09:24:27;99467.19;;;8.41;100.00
3142;BME280;1581;51.568;6.998;2024-02-26T09:26:54;99478.03;;;8.40;100.00
3142;BME280;1581;51.568;6.998;2024-02-26T09:29:21;99475.78;;;8.37;100.00
3142;BME280;1581;51.568;6.998;2024-02-26T09:31:50;99473.53;;;8.47;100.00
3142;BME280;1581;51.568;6.998;2024-02-26T09:34:17;99464.34;;;8.43;100.00
3142;BME280;1581;51.568;6.998;2024-02-26T09:36:44;99462.09;;;8.33;100.00
3142;BME280;1581;51.568;6.998;2024-02-26T09:39:11;99470.06;;;8.33;100.00
3142;BME280;1581;51.568;6.998;2024-02-26T09:41:40;99474.34;;;8.34;100.00
3142;BME280;1581;51.568;6.998;2024-02-26T09:44:07;99471.91;;;8.33;100.00
3142;BME280;1581;51.568;6.998;2024-02-26T09:46:36;99483.56;;;8.32;100.00
3142;BME280;1581;51.568;6.998;2024-02-26T09:49:06;99480.47;;;8.48;100.00
3142;BME280;1581;51.568;6.998;2024-02-26T09:51:33;99487.63;;;8.41;100.00
3142;BME280;1581;51.568;6.998;2024-02-26T09:54:00;99487.00;;;8.39;100.00
3142;BME280;1581;51.568;6.998;2024-02-26T09:56:28;99492.72;;;8.29;100.00
3142;BME280;1581;51.568;6.998;2024-02-26T09:58:56;99487.00;;;8.26;100.00
3142;BME280;1581;51.568;6.998;2024-02-26T10:01:24;99493.75;;;8.22;100.00
3142;BME280;1581;51.568;6.998;2024-02-26T10:03:56;99494.97;;;8.39;100.00
3142;BME280;1581;51.568;6.998;2024-02-26T10:06:26;99502.53;;;8.35;100.00
3142;BME280;1581;51.568;6.998;2024-02-26T10:08:55;99500.28;;;8.45;100.00
3142;BME280;1581;51.568;6.998;2024-02-26T10:11:25;99507.22;;;8.33;100.00
3142;BME280;1581;51.568;6.998;2024-02-26T10:13:52;99515.19;;;8.40;100.00
3142;BME280;1581;51.568;6.998;2024-02-26T10:16:19;99509.03;;;8.39;100.00
3142;BME280;1581;51.568;6.998;2024-02-26T10:18:47;99510.28;;;8.37;100.00
3142;BME280;1581;51.568;6.998;2024-02-26T10:21:16;99509.47;;;8.43;100.00
3142;BME280;1581;51.568;6.998;2024-02-26T10:23:46;99509.66;;;8.41;100.00
3142;BME280;1581;51.568;6.998;2024-02-26T10:26:15;99514.19;;;8.47;100.00
3142;BME280;1581;51.568;6.998;2024-02-26T10:28:43;99508.84;;;8.41;100.00
3142;BME280;1581;51.568;6.998;2024-02-26T10:31:13;99513.75;;;8.31;100.00
3142;BME280;1581;51.568;6.998;2024-02-26T10:33:40;99519.47;;;8.41;100.00
3142;BME280;1581;51.568;6.998;2024-02-26T10:36:09;99517.00;;;8.39;100.00
3142;BME280;1581;51.568;6.998;2024-02-26T10:38:37;99520.69;;;8.25;100.00
3142;BME280;1581;51.568;6.998;2024-02-26T10:41:06;99526.81;;;8.39;100.00
3142;BME280;1581;51.568;6.998;2024-02-26T10:43:34;99530.50;;;8.51;100.00
3142;BME280;1581;51.568;6.998;2024-02-26T10:46:01;99532.53;;;8.61;100.00
3142;BME280;1581;51.568;6.998;2024-02-26T10:48:28;99538.66;;;8.62;100.00
3142;BME280;1581;51.568;6.998;2024-02-26T10:50:55;99532.31;;;8.63;100.00
3142;BME280;1581;51.568;6.998;2024-02-26T10:53:26;99537.81;;;8.74;100.00
3142;BME280;1581;51.568;6.998;2024-02-26T10:56:01;99540.06;;;8.77;100.00
3142;BME280;1581;51.568;6.998;2024-02-26T10:58:31;99542.34;;;8.80;100.00
3142;BME280;1581;51.568;6.998;2024-02-26T11:00:59;99555.19;;;8.83;100.00
3142;BME280;1581;51.568;6.998;2024-02-26T11:03:26;99557.84;;;8.83;100.00
3142;BME280;1581;51.568;6.998;2024-02-26T11:06:01;99559.69;;;8.96;100.00
3142;BME280;1581;51.568;6.998;2024-02-26T11:08:28;99566.81;;;9.02;100.00
3142;BME280;1581;51.568;6.998;2024-02-26T11:10:58;99574.56;;;9.10;100.00
3142;BME280;1581;51.568;6.998;2024-02-26T11:13:28;99581.50;;;9.17;100.00
3142;BME280;1581;51.568;6.998;2024-02-26T11:15:59;99589.06;;;9.33;100.00
3142;BME280;1581;51.568;6.998;2024-02-26T11:18:27;99586.59;;;9.25;100.00
3142;BME280;1581;51.568;6.998;2024-02-26T11:20:55;99586.19;;;9.15;100.00
3142;BME280;1581;51.568;6.998;2024-02-26T11:23:23;99591.34;;;9.10;100.00
3142;BME280;1581;51.568;6.998;2024-02-26T11:25:51;99588.25;;;9.20;100.00
3142;BME280;1581;51.568;6.998;2024-02-26T11:28:19;99595.63;;;9.05;100.00
3142;BME280;1581;51.568;6.998;2024-02-26T11:30:48;99592.34;;;9.09;100.00
3142;BME280;1581;51.568;6.998;2024-02-26T11:33:17;99594.63;;;9.12;100.00
3142;BME280;1581;51.568;6.998;2024-02-26T11:35:46;99588.66;;;9.23;100.00
3142;BME280;1581;51.568;6.998;2024-02-26T11:38:20;99600.34;;;9.09;100.00
3142;BME280;1581;51.568;6.998;2024-02-26T11:40:48;99597.84;;;9.21;100.00
3142;BME280;1581;51.568;6.998;2024-02-26T11:43:15;99591.31;;;9.23;100.00
3142;BME280;1581;51.568;6.998;2024-02-26T11:45:50;99589.88;;;9.27;100.00
3142;BME280;1581;51.568;6.998;2024-02-26T11:48:23;99594.19;;;9.15;100.00
3142;BME280;1581;51.568;6.998;2024-02-26T11:50:52;99592.53;;;9.14;100.00
3142;BME280;1581;51.568;6.998;2024-02-26T11:53:22;99590.53;;;9.03;100.00
3142;BME280;1581;51.568;6.998;2024-02-26T11:56:22;99597.28;;;9.06;100.00
3142;BME280;1581;51.568;6.998;2024-02-26T11:58:56;99600.91;;;9.24;100.00
3142;BME280;1581;51.568;6.998;2024-02-26T12:01:41;99601.56;;;9.13;100.00
3142;BME280;1581;51.568;6.998;2024-02-26T12:04:17;99609.72;;;9.05;100.00
3142;BME280;1581;51.568;6.998;2024-02-26T12:06:47;99618.09;;;9.22;100.00
3142;BME280;1581;51.568;6.998;2024-02-26T12:09:36;99611.16;;;9.14;100.00
3142;BME280;1581;51.568;6.998;2024-02-26T12:12:06;99612.94;;;9.39;100.00
3142;BME280;1581;51.568;6.998;2024-02-26T12:14:35;99611.28;;;9.51;100.00
3142;BME280;1581;51.568;6.998;2024-02-26T12:17:04;99615.09;;;9.68;100.00
3142;BME280;1581;51.568;6.998;2024-02-26T12:19:34;99621.78;;;9.84;100.00
3142;BME280;1581;51.568;6.998;2024-02-26T12:22:02;99613.59;;;9.92;100.00
3142;BME280;1581;51.568;6.998;2024-02-26T12:24:30;99615.63;;;10.03;100.00
3142;BME280;1581;51.568;6.998;2024-02-26T12:26:57;99622.78;;;10.02;100.00
3142;BME280;1581;51.568;6.998;2024-02-26T12:29:24;99618.50;;;9.88;100.00
3142;BME280;1581;51.568;6.998;2024-02-26T12:31:51;99627.72;;;9.86;100.00
3142;BME280;1581;51.568;6.998;2024-02-26T12:34:18;99629.72;;;9.97;100.00
3142;BME280;1581;51.568;6.998;2024-02-26T12:36:47;99634.25;;;10.03;100.00
3142;BME280;1581;51.568;6.998;2024-02-26T12:39:14;99637.31;;;9.93;100.00
3142;BME280;1581;51.568;6.998;2024-02-26T12:41:41;99640.25;;;9.79;100.00
3142;BME280;1581;51.568;6.998;2024-02-26T12:44:15;99644.81;;;9.52;100.00
3142;BME280;1581;51.568;6.998;2024-02-26T12:46:42;99639.25;;;9.67;100.00
3142;BME280;1581;51.568;6.998;2024-02-26T12:49:09;99641.91;;;9.67;100.00
3142;BME280;1581;51.568;6.998;2024-02-26T12:51:41;99641.09;;;9.73;100.00
3142;BME280;1581;51.568;6.998;2024-02-26T12:54:09;99641.91;;;9.73;100.00
3142;BME280;1581;51.568;6.998;2024-02-26T12:56:37;99644.03;;;9.39;100.00
3142;BME280;1581;51.568;6.998;2024-02-26T12:59:04;99643.25;;;9.32;100.00
3142;BME280;1581;51.568;6.998;2024-02-26T13:01:31;99659.97;;;9.45;100.00
3142;BME280;1581;51.568;6.998;2024-02-26T13:03:59;99657.34;;;9.26;100.00
3142;BME280;1581;51.568;6.998;2024-02-26T13:06:26;99657.34;;;9.33;100.00
3142;BME280;1581;51.568;6.998;2024-02-26T13:08:56;99667.56;;;9.36;100.00
3142;BME280;1581;51.568;6.998;2024-02-26T13:11:26;99665.75;;;9.23;100.00
3142;BME280;1581;51.568;6.998;2024-02-26T13:13:54;99677.19;;;9.43;100.00
3142;BME280;1581;51.568;6.998;2024-02-26T13:16:24;99671.19;;;9.54;100.00
3142;BME280;1581;51.568;6.998;2024-02-26T13:18:52;99676.09;;;9.57;100.00
3142;BME280;1581;51.568;6.998;2024-02-26T13:21:19;99685.31;;;9.61;100.00
3142;BME280;1581;51.568;6.998;2024-02-26T13:23:51;99692.50;;;9.35;100.00
3142;BME280;1581;51.568;6.998;2024-02-26T13:26:22;99687.81;;;9.17;100.00